createdAt,value
2023-02-19T00:00:39.847Z,44.92
2023-02-19T00:03:06.181Z,44.43
2023-02-19T00:05:32.476Z,44.18
2023-02-19T00:07:58.706Z,44.24
2023-02-19T00:10:24.941Z,44.42
2023-02-19T00:12:51.173Z,44.00
2023-02-19T00:15:17.426Z,43.72
2023-02-19T00:17:43.822Z,44.15
2023-02-19T00:20:10.097Z,45.11
2023-02-19T00:22:36.341Z,47.92
2023-02-19T00:25:02.642Z,46.29
2023-02-19T00:27:28.897Z,46.47
2023-02-19T00:29:55.310Z,47.49
2023-02-19T00:32:21.610Z,47.03
2023-02-19T00:34:47.912Z,46.91
2023-02-19T00:37:14.158Z,46.73
2023-02-19T00:39:40.420Z,46.01
2023-02-19T00:42:06.725Z,46.34
2023-02-19T00:44:32.977Z,46.10
2023-02-19T00:46:59.244Z,45.99
2023-02-19T00:49:25.558Z,45.69
2023-02-19T00:51:51.879Z,45.70
2023-02-19T00:54:18.191Z,45.81
2023-02-19T00:56:44.446Z,45.97
2023-02-19T00:59:10.773Z,45.42
2023-02-19T01:01:37.222Z,46.39
2023-02-19T01:04:06.176Z,46.34
2023-02-19T01:06:32.836Z,47.12
2023-02-19T01:08:59.132Z,44.46
2023-02-19T01:11:25.443Z,44.89
2023-02-19T01:13:51.674Z,44.89
2023-02-19T01:16:18.008Z,42.90
2023-02-19T01:18:44.338Z,45.42
2023-02-19T01:21:10.937Z,46.12
2023-02-19T01:23:37.389Z,45.15
2023-02-19T01:26:03.659Z,45.70
2023-02-19T01:28:29.893Z,46.64
2023-02-19T01:30:56.202Z,46.61
2023-02-19T01:33:22.510Z,45.44
2023-02-19T01:35:48.753Z,46.39
2023-02-19T01:38:15.009Z,47.49
2023-02-19T01:40:41.289Z,47.10
2023-02-19T01:43:07.548Z,46.06
2023-02-19T01:45:33.810Z,45.97
2023-02-19T01:48:00.054Z,46.48
2023-02-19T01:50:26.323Z,46.39
2023-02-19T01:52:52.600Z,45.92
2023-02-19T01:55:18.871Z,45.59
2023-02-19T01:57:45.108Z,46.34
2023-02-19T02:00:11.373Z,44.68
2023-02-19T02:02:37.650Z,47.03
2023-02-19T02:05:03.890Z,47.45
2023-02-19T02:07:30.132Z,47.89
2023-02-19T02:09:56.423Z,47.99
2023-02-19T02:12:22.668Z,46.35
2023-02-19T02:14:48.919Z,45.93
2023-02-19T02:17:15.179Z,45.97
2023-02-19T02:19:41.421Z,46.27
2023-02-19T02:22:07.754Z,46.36
2023-02-19T02:24:34.096Z,46.16
2023-02-19T02:27:00.361Z,46.84
2023-02-19T02:29:26.619Z,46.06
2023-02-19T02:31:53.030Z,45.14
2023-02-19T02:34:19.332Z,45.54
2023-02-19T02:36:45.581Z,46.03
2023-02-19T02:39:11.858Z,46.04
2023-02-19T02:41:38.104Z,45.57
2023-02-19T02:44:04.497Z,45.00
2023-02-19T02:46:30.771Z,44.41
2023-02-19T02:48:57.021Z,43.84
2023-02-19T02:51:23.277Z,43.25
2023-02-19T02:53:49.534Z,43.67
2023-02-19T02:56:15.813Z,43.64
2023-02-19T02:58:42.130Z,43.94
2023-02-19T03:01:08.708Z,44.13
2023-02-19T03:03:35.150Z,44.70
2023-02-19T03:06:01.439Z,44.94
2023-02-19T03:08:27.704Z,44.72
2023-02-19T03:10:53.929Z,45.11
2023-02-19T03:13:20.199Z,45.34
2023-02-19T03:15:46.462Z,44.95
2023-02-19T03:18:12.773Z,43.86
2023-02-19T03:20:39.015Z,41.88
2023-02-19T03:23:05.300Z,42.47
2023-02-19T03:25:31.550Z,44.20
2023-02-19T03:27:57.805Z,43.78
2023-02-19T03:30:24.111Z,42.07
2023-02-19T03:32:50.391Z,42.84
2023-02-19T03:35:16.655Z,43.04
2023-02-19T03:37:42.945Z,44.25
2023-02-19T03:40:09.231Z,43.48
2023-02-19T03:42:35.478Z,42.56
2023-02-19T03:45:04.274Z,43.00
2023-02-19T03:47:30.551Z,43.35
2023-02-19T03:49:56.816Z,44.66
2023-02-19T03:52:23.108Z,42.84
2023-02-19T03:54:49.391Z,43.82
2023-02-19T03:57:15.697Z,43.53
2023-02-19T03:59:41.956Z,43.59
2023-02-19T04:02:08.250Z,43.09
2023-02-19T04:04:34.572Z,42.21
2023-02-19T04:07:00.912Z,43.83
2023-02-19T04:09:27.149Z,44.33
2023-02-19T04:11:53.378Z,44.31
2023-02-19T04:14:39.624Z,45.65
2023-02-19T04:17:06.611Z,45.81
2023-02-19T04:19:32.863Z,46.61
2023-02-19T04:21:59.154Z,45.43
2023-02-19T04:24:25.419Z,45.92
2023-02-19T04:26:51.732Z,45.51
2023-02-19T04:29:17.957Z,46.59
2023-02-19T04:31:44.259Z,45.55
2023-02-19T04:34:10.591Z,46.60
2023-02-19T04:36:36.875Z,46.87
2023-02-19T04:39:03.141Z,45.74
2023-02-19T04:41:29.396Z,46.16
2023-02-19T04:43:55.632Z,45.17
2023-02-19T04:46:21.948Z,46.36
2023-02-19T04:48:48.308Z,44.64
2023-02-19T04:51:14.595Z,43.83
2023-02-19T04:53:40.900Z,44.24
2023-02-19T04:56:07.166Z,42.13
2023-02-19T04:58:33.401Z,42.40
2023-02-19T05:00:59.684Z,42.81
2023-02-19T05:03:25.960Z,42.13
2023-02-19T05:05:52.243Z,42.25
2023-02-19T05:08:18.498Z,44.11
2023-02-19T05:10:44.896Z,45.11
2023-02-19T05:13:11.150Z,44.84
2023-02-19T05:15:37.506Z,45.48
2023-02-19T05:18:03.836Z,44.67
2023-02-19T05:20:30.083Z,44.75
2023-02-19T05:22:56.405Z,44.41
2023-02-19T05:25:22.830Z,43.31
2023-02-19T05:27:49.076Z,44.20
2023-02-19T05:30:15.372Z,43.19
2023-02-19T05:32:42.012Z,42.35
2023-02-19T05:35:08.299Z,42.68
2023-02-19T05:37:34.600Z,42.91
2023-02-19T05:40:00.978Z,42.22
2023-02-19T05:42:27.241Z,42.97
2023-02-19T05:44:53.523Z,43.56
2023-02-19T05:47:19.869Z,44.03
2023-02-19T05:49:46.182Z,44.18
2023-02-19T05:52:12.438Z,44.65
2023-02-19T05:54:38.746Z,44.86
2023-02-19T05:57:05.047Z,43.73
2023-02-19T05:59:31.317Z,43.77
2023-02-19T06:01:57.576Z,44.21
2023-02-19T06:04:23.845Z,42.13
2023-02-19T06:06:50.126Z,41.19
2023-02-19T06:09:16.385Z,40.69
2023-02-19T06:11:42.625Z,41.73
2023-02-19T06:14:08.986Z,41.81
2023-02-19T06:16:35.276Z,42.59
2023-02-19T06:19:01.553Z,40.82
2023-02-19T06:21:27.810Z,39.77
2023-02-19T06:23:54.064Z,40.26
2023-02-19T06:26:20.329Z,42.03
2023-02-19T06:28:46.576Z,42.74
2023-02-19T06:31:13.233Z,43.01
2023-02-19T06:33:39.685Z,43.85
2023-02-19T06:36:05.940Z,43.20
2023-02-19T06:38:32.339Z,43.42
2023-02-19T06:40:58.656Z,43.79
2023-02-19T06:43:24.916Z,44.12
2023-02-19T06:45:51.580Z,44.77
2023-02-19T06:48:17.867Z,45.28
2023-02-19T06:50:44.170Z,44.46
2023-02-19T06:53:10.473Z,44.59
2023-02-19T06:55:36.780Z,45.47
2023-02-19T06:58:03.041Z,45.14
2023-02-19T07:00:29.324Z,45.57
2023-02-19T07:02:55.623Z,45.62
2023-02-19T07:05:21.892Z,44.93
2023-02-19T07:07:48.200Z,42.80
2023-02-19T07:10:15.749Z,42.84
2023-02-19T07:12:41.969Z,42.87
2023-02-19T07:15:08.239Z,42.14
2023-02-19T07:17:35.518Z,41.60
2023-02-19T07:20:01.777Z,42.46
2023-02-19T07:22:28.115Z,42.79
2023-02-19T07:24:54.460Z,42.62
2023-02-19T07:27:20.756Z,43.19
2023-02-19T07:29:47.049Z,43.52
2023-02-19T07:32:13.354Z,43.15
2023-02-19T07:34:39.611Z,42.40
2023-02-19T07:37:05.900Z,43.04
2023-02-19T07:39:32.206Z,42.64
2023-02-19T07:41:58.449Z,42.56
2023-02-19T07:44:24.758Z,42.33
2023-02-19T07:46:51.060Z,42.74
2023-02-19T07:49:17.309Z,42.12
2023-02-19T07:51:43.559Z,41.26
2023-02-19T07:54:09.850Z,42.08
2023-02-19T07:56:36.111Z,39.47
2023-02-19T07:59:02.368Z,39.24
2023-02-19T08:01:28.619Z,38.17
2023-02-19T08:03:55.037Z,38.16
2023-02-19T08:06:21.294Z,37.75
2023-02-19T08:08:47.564Z,38.10
2023-02-19T08:11:13.785Z,37.58
2023-02-19T08:13:40.258Z,39.22
2023-02-19T08:16:17.306Z,40.57
2023-02-19T08:18:46.546Z,41.99
2023-02-19T08:21:12.824Z,44.23
2023-02-19T08:23:39.080Z,45.17
2023-02-19T08:26:05.485Z,45.87
2023-02-19T08:28:31.728Z,45.86
2023-02-19T08:30:58.026Z,45.28
2023-02-19T08:33:24.334Z,45.00
2023-02-19T08:35:50.669Z,44.54
2023-02-19T08:38:17.113Z,44.29
2023-02-19T08:40:43.399Z,44.49
2023-02-19T08:43:09.696Z,43.76
2023-02-19T08:45:35.995Z,42.93
2023-02-19T08:48:02.265Z,42.68
2023-02-19T08:50:28.545Z,42.32
2023-02-19T08:52:54.786Z,42.05
2023-02-19T08:55:21.082Z,41.55
2023-02-19T08:57:49.720Z,41.53
2023-02-19T09:00:16.803Z,41.07
2023-02-19T09:02:43.667Z,40.25
2023-02-19T09:05:09.951Z,40.18
2023-02-19T09:07:36.201Z,40.51
2023-02-19T09:10:02.483Z,40.15
2023-02-19T09:12:28.777Z,39.85
2023-02-19T09:14:55.038Z,39.48
2023-02-19T09:17:21.268Z,39.37
2023-02-19T09:19:50.028Z,38.54
2023-02-19T09:22:17.033Z,38.07
2023-02-19T09:24:43.364Z,37.66
2023-02-19T09:27:09.682Z,38.22
2023-02-19T09:29:36.311Z,38.07
2023-02-19T09:32:02.744Z,39.10
2023-02-19T09:34:29.049Z,40.07
2023-02-19T09:36:55.417Z,40.85
2023-02-19T09:39:21.661Z,41.09
2023-02-19T09:41:47.963Z,41.25
2023-02-19T09:44:14.411Z,41.69
2023-02-19T09:46:40.660Z,42.08
2023-02-19T09:49:06.903Z,43.09
2023-02-19T09:51:33.156Z,45.00
2023-02-19T09:53:59.442Z,45.72
2023-02-19T09:56:25.752Z,46.92
2023-02-19T09:58:52.279Z,46.99
2023-02-19T10:01:18.581Z,46.74
2023-02-19T10:03:44.957Z,46.04
2023-02-19T10:06:11.544Z,44.73
2023-02-19T10:08:37.885Z,42.52
2023-02-19T10:11:04.223Z,42.92
2023-02-19T10:13:30.526Z,44.86
2023-02-19T10:15:56.824Z,45.30
2023-02-19T10:18:23.137Z,45.67
2023-02-19T10:20:49.460Z,45.16
2023-02-19T10:23:15.837Z,45.01
2023-02-19T10:25:42.174Z,45.15
2023-02-19T10:28:08.487Z,45.38
2023-02-19T10:30:34.853Z,45.63
2023-02-19T10:33:01.170Z,45.04
2023-02-19T10:35:27.491Z,45.31
2023-02-19T10:37:53.755Z,44.97
2023-02-19T10:40:19.992Z,44.86
2023-02-19T10:42:46.287Z,45.59
2023-02-19T10:45:12.593Z,46.08
2023-02-19T10:47:38.851Z,45.88
2023-02-19T10:50:05.173Z,45.58
2023-02-19T10:52:31.476Z,45.44
2023-02-19T10:54:58.762Z,45.24
2023-02-19T10:57:25.088Z,45.92
2023-02-19T10:59:51.411Z,46.01
2023-02-19T11:02:17.795Z,45.27
2023-02-19T11:04:44.217Z,45.09
2023-02-19T11:07:10.576Z,43.74
2023-02-19T11:09:36.864Z,43.67
2023-02-19T11:12:03.120Z,43.57
2023-02-19T11:14:29.424Z,43.37
2023-02-19T11:16:55.742Z,43.00
2023-02-19T11:19:21.975Z,43.15
2023-02-19T11:21:48.231Z,44.01
2023-02-19T11:24:14.495Z,44.10
2023-02-19T11:26:40.735Z,44.50
2023-02-19T11:29:06.982Z,43.99
2023-02-19T11:31:33.328Z,43.79
2023-02-19T11:33:59.688Z,45.15
2023-02-19T11:36:26.851Z,45.36
2023-02-19T11:38:54.442Z,45.77
2023-02-19T11:41:20.874Z,45.99
2023-02-19T11:43:47.178Z,45.25
2023-02-19T11:46:13.523Z,45.86
2023-02-19T11:48:39.831Z,44.67
2023-02-19T11:51:06.122Z,44.74
2023-02-19T11:53:32.418Z,44.75
2023-02-19T11:55:58.697Z,44.19
2023-02-19T11:58:24.941Z,44.04
2023-02-19T12:00:51.185Z,44.66
2023-02-19T12:03:17.537Z,44.35
2023-02-19T12:05:43.877Z,44.40
2023-02-19T12:08:10.183Z,44.32
2023-02-19T12:10:36.478Z,44.44
2023-02-19T12:13:02.752Z,43.72
2023-02-19T12:15:29.096Z,44.19
2023-02-19T12:17:55.375Z,44.30
2023-02-19T12:20:21.732Z,44.56
2023-02-19T12:22:48.057Z,44.39
2023-02-19T12:25:14.372Z,44.45
2023-02-19T12:27:40.642Z,44.64
2023-02-19T12:30:06.945Z,44.66
2023-02-19T12:32:33.194Z,44.60
2023-02-19T12:34:59.464Z,45.13
2023-02-19T12:37:25.743Z,43.96
2023-02-19T12:39:51.997Z,43.85
2023-02-19T12:42:18.292Z,44.01
2023-02-19T12:44:44.633Z,43.76
2023-02-19T12:47:10.932Z,43.72
2023-02-19T12:49:37.195Z,44.10
2023-02-19T12:52:03.467Z,44.14
2023-02-19T12:54:29.778Z,43.73
2023-02-19T12:56:56.092Z,43.29
2023-02-19T12:59:22.344Z,42.40
2023-02-19T13:01:48.614Z,41.95
2023-02-19T13:04:15.052Z,41.29
2023-02-19T13:06:41.294Z,40.27
2023-02-19T13:09:07.567Z,40.00
2023-02-19T13:11:36.348Z,39.87
2023-02-19T13:14:02.909Z,40.36
2023-02-19T13:16:29.213Z,40.03
2023-02-19T13:18:55.516Z,39.86
2023-02-19T13:21:21.832Z,39.69
2023-02-19T13:23:48.103Z,39.59
2023-02-19T13:26:14.716Z,39.75
2023-02-19T13:28:41.297Z,40.35
2023-02-19T13:31:07.642Z,39.33
2023-02-19T13:33:33.968Z,39.74
2023-02-19T13:36:00.273Z,40.33
2023-02-19T13:38:26.551Z,39.73
2023-02-19T13:40:52.825Z,39.43
2023-02-19T13:43:19.093Z,39.60
2023-02-19T13:45:45.367Z,39.75
2023-02-19T13:48:11.661Z,40.73
2023-02-19T13:50:37.905Z,40.67
2023-02-19T13:53:04.186Z,41.04
2023-02-19T13:55:30.429Z,41.21
2023-02-19T13:57:56.714Z,41.33
2023-02-19T14:00:22.986Z,41.14
2023-02-19T14:02:49.254Z,40.27
2023-02-19T14:05:15.541Z,39.83
2023-02-19T14:07:41.814Z,40.22
2023-02-19T14:10:08.055Z,41.06
2023-02-19T14:12:34.294Z,41.12
2023-02-19T14:15:00.545Z,41.30
2023-02-19T14:17:26.781Z,41.42
2023-02-19T14:19:53.173Z,41.57
2023-02-19T14:22:19.451Z,41.70
2023-02-19T14:24:45.837Z,41.21
2023-02-19T14:27:12.095Z,41.54
2023-02-19T14:29:38.373Z,41.55
2023-02-19T14:32:04.650Z,41.82
2023-02-19T14:34:30.969Z,41.56
2023-02-19T14:36:58.298Z,41.47
2023-02-19T14:39:25.879Z,40.69
2023-02-19T14:41:52.154Z,40.48
2023-02-19T14:44:18.444Z,40.00
2023-02-19T14:46:44.836Z,39.05
2023-02-19T14:49:11.153Z,37.87
2023-02-19T14:51:37.421Z,37.59
2023-02-19T14:54:03.673Z,37.41
2023-02-19T14:56:29.929Z,36.96
2023-02-19T14:58:56.180Z,37.01
2023-02-19T15:01:22.433Z,37.03
2023-02-19T15:03:48.682Z,36.85
2023-02-19T15:06:14.959Z,36.63
2023-02-19T15:08:41.248Z,36.66
2023-02-19T15:11:07.543Z,37.21
2023-02-19T15:13:33.789Z,37.85
2023-02-19T15:16:00.101Z,38.10
2023-02-19T15:18:27.893Z,38.49
2023-02-19T15:20:54.195Z,39.74
2023-02-19T15:23:20.447Z,39.72
2023-02-19T15:25:46.696Z,40.16
2023-02-19T15:28:12.952Z,41.16
2023-02-19T15:30:39.317Z,41.54
2023-02-19T15:33:05.610Z,41.69
2023-02-19T15:35:31.920Z,42.00
2023-02-19T15:37:58.206Z,41.81
2023-02-19T15:40:24.448Z,41.39
2023-02-19T15:42:50.702Z,41.71
2023-02-19T15:45:16.978Z,41.52
2023-02-19T15:47:43.398Z,42.05
2023-02-19T15:50:09.699Z,42.03
2023-02-19T15:52:36.016Z,41.94
2023-02-19T15:55:02.267Z,41.90
2023-02-19T15:57:28.622Z,41.88
2023-02-19T15:59:54.848Z,42.72
2023-02-19T16:02:21.104Z,42.58
2023-02-19T16:04:47.429Z,43.00
2023-02-19T16:07:13.680Z,43.26
2023-02-19T16:09:40.046Z,43.38
2023-02-19T16:12:06.383Z,43.95
2023-02-19T16:14:32.608Z,44.21
2023-02-19T16:16:58.879Z,44.96
2023-02-19T16:19:27.001Z,45.96
2023-02-19T16:21:54.601Z,45.79
2023-02-19T16:24:20.897Z,45.18
2023-02-19T16:26:47.145Z,45.59
2023-02-19T16:29:13.526Z,46.03
2023-02-19T16:31:39.860Z,45.43
2023-02-19T16:34:06.135Z,44.47
2023-02-19T16:36:32.370Z,43.23
2023-02-19T16:38:58.671Z,43.23
2023-02-19T16:41:24.947Z,43.32
2023-02-19T16:43:51.328Z,43.09
2023-02-19T16:46:17.667Z,43.81
2023-02-19T16:48:43.948Z,44.75
2023-02-19T16:51:10.432Z,46.02
2023-02-19T16:53:36.881Z,45.63
2023-02-19T16:56:03.194Z,45.13
2023-02-19T16:58:30.298Z,45.45
2023-02-19T17:00:56.611Z,45.08
2023-02-19T17:03:22.871Z,44.83
2023-02-19T17:05:49.163Z,43.97
2023-02-19T17:08:15.397Z,44.48
2023-02-19T17:10:41.658Z,43.74
2023-02-19T17:13:07.952Z,43.25
2023-02-19T17:15:34.229Z,41.90
2023-02-19T17:18:00.554Z,41.79
2023-02-19T17:20:26.875Z,41.39
2023-02-19T17:22:53.118Z,40.97
2023-02-19T17:25:19.394Z,41.23
2023-02-19T17:27:45.752Z,40.98
2023-02-19T17:30:12.223Z,40.99
2023-02-19T17:32:38.598Z,42.62
2023-02-19T17:35:04.910Z,43.09
2023-02-19T17:37:31.248Z,44.22
2023-02-19T17:39:57.536Z,44.05
2023-02-19T17:42:23.833Z,44.36
2023-02-19T17:44:50.064Z,43.84
2023-02-19T17:47:16.357Z,46.05
2023-02-19T17:49:42.640Z,45.99
2023-02-19T17:52:08.885Z,46.41
2023-02-19T17:54:35.129Z,46.33
2023-02-19T17:57:01.433Z,46.96
2023-02-19T17:59:27.684Z,46.97
2023-02-19T18:01:53.985Z,47.14
2023-02-19T18:04:20.265Z,46.25
2023-02-19T18:06:46.525Z,46.18
2023-02-19T18:09:12.789Z,46.31
2023-02-19T18:11:39.076Z,46.47
2023-02-19T18:14:05.315Z,46.50
2023-02-19T18:16:31.608Z,45.90
2023-02-19T18:18:57.883Z,43.84
2023-02-19T18:21:24.346Z,44.47
2023-02-19T18:23:50.637Z,46.01
2023-02-19T18:26:17.175Z,45.97
2023-02-19T18:28:43.445Z,45.75
2023-02-19T18:31:09.919Z,46.00
2023-02-19T18:33:36.443Z,46.73
2023-02-19T18:36:02.665Z,45.85
2023-02-19T18:38:31.433Z,45.80
2023-02-19T18:40:58.937Z,46.08
2023-02-19T18:43:25.265Z,46.35
2023-02-19T18:45:51.593Z,46.58
2023-02-19T18:48:17.901Z,46.17
2023-02-19T18:50:44.182Z,44.76
2023-02-19T18:53:10.475Z,46.70
2023-02-19T18:55:36.764Z,47.82
2023-02-19T18:58:03.050Z,47.51
2023-02-19T19:00:29.320Z,47.06
2023-02-19T19:02:55.632Z,47.02
2023-02-19T19:05:21.874Z,47.47
2023-02-19T19:07:48.139Z,47.37
2023-02-19T19:10:14.987Z,47.24
2023-02-19T19:12:41.323Z,48.13
2023-02-19T19:15:07.656Z,49.05
2023-02-19T19:17:35.883Z,49.61
2023-02-19T19:20:02.352Z,52.47
2023-02-19T19:22:28.878Z,53.48
2023-02-19T19:24:55.173Z,55.73
2023-02-19T19:27:21.479Z,55.72
2023-02-19T19:29:47.942Z,56.83
2023-02-19T19:32:14.298Z,56.11
2023-02-19T19:34:40.593Z,55.08
2023-02-19T19:37:06.924Z,54.49
2023-02-19T19:39:33.318Z,53.71
2023-02-19T19:41:59.712Z,54.14
2023-02-19T19:44:25.973Z,54.40
2023-02-19T19:46:52.257Z,53.46
2023-02-19T19:49:18.651Z,51.98
2023-02-19T19:51:44.896Z,50.71
2023-02-19T19:54:11.164Z,50.98
2023-02-19T19:56:37.388Z,50.55
2023-02-19T19:59:03.621Z,50.42
2023-02-19T20:01:29.898Z,49.78
2023-02-19T20:03:56.164Z,48.80
2023-02-19T20:06:22.410Z,48.09
2023-02-19T20:08:48.720Z,47.44
2023-02-19T20:11:15.007Z,46.40
2023-02-19T20:13:41.258Z,45.94
2023-02-19T20:16:07.557Z,45.28
2023-02-19T20:18:33.897Z,44.76
2023-02-19T20:21:00.129Z,44.32
2023-02-19T20:23:27.413Z,44.47
2023-02-19T20:25:53.911Z,44.87
2023-02-19T20:28:20.168Z,45.91
2023-02-19T20:30:47.248Z,45.03
2023-02-19T20:33:13.521Z,44.24
2023-02-19T20:35:39.798Z,43.85
2023-02-19T20:38:06.068Z,42.57
2023-02-19T20:40:32.343Z,42.61
2023-02-19T20:42:58.637Z,43.28
2023-02-19T20:45:24.970Z,43.49
2023-02-19T20:47:51.392Z,45.09
2023-02-19T20:50:17.699Z,45.65
2023-02-19T20:52:43.994Z,45.40
2023-02-19T20:55:10.287Z,45.97
2023-02-19T20:57:36.611Z,45.97
2023-02-19T21:00:02.959Z,46.51
2023-02-19T21:02:29.393Z,46.60
2023-02-19T21:04:55.705Z,45.73
2023-02-19T21:07:22.053Z,44.91
2023-02-19T21:09:48.316Z,46.84
2023-02-19T21:12:14.618Z,47.42
2023-02-19T21:14:40.861Z,46.05
2023-02-19T21:17:07.126Z,45.62
2023-02-19T21:19:33.423Z,45.38
2023-02-19T21:21:59.683Z,45.23
2023-02-19T21:24:25.938Z,45.29
2023-02-19T21:26:52.190Z,44.99
2023-02-19T21:29:18.450Z,44.63
2023-02-19T21:31:44.856Z,44.35
2023-02-19T21:34:11.260Z,44.05
2023-02-19T21:36:37.500Z,43.62
2023-02-19T21:39:03.764Z,43.83
2023-02-19T21:41:30.016Z,42.90
2023-02-19T21:43:56.289Z,42.61
2023-02-19T21:46:22.721Z,42.03
2023-02-19T21:48:49.025Z,41.61
2023-02-19T21:51:15.327Z,42.18
2023-02-19T21:53:41.591Z,41.59
2023-02-19T21:56:07.875Z,42.08
2023-02-19T21:58:34.149Z,41.84
2023-02-19T22:01:00.518Z,41.76
2023-02-19T22:03:26.802Z,41.64
2023-02-19T22:05:53.115Z,41.41
2023-02-19T22:08:19.381Z,41.48
2023-02-19T22:10:45.612Z,43.17
2023-02-19T22:13:11.870Z,43.80
2023-02-19T22:15:38.123Z,44.02
2023-02-19T22:18:04.377Z,44.51
2023-02-19T22:20:30.644Z,42.59
2023-02-19T22:22:56.941Z,43.19
2023-02-19T22:25:23.201Z,43.37
2023-02-19T22:27:49.439Z,43.00
2023-02-19T22:30:15.793Z,44.06
2023-02-19T22:32:42.092Z,44.31
2023-02-19T22:35:08.412Z,45.11
2023-02-19T22:37:34.666Z,45.05
2023-02-19T22:40:00.939Z,45.61
2023-02-19T22:42:27.177Z,45.44
2023-02-19T22:44:53.427Z,45.15
2023-02-19T22:47:19.688Z,45.52
2023-02-19T22:49:45.924Z,47.18
2023-02-19T22:52:12.149Z,48.38
2023-02-19T22:54:38.406Z,50.13
2023-02-19T22:57:04.676Z,52.63
2023-02-19T22:59:31.040Z,54.82
2023-02-19T23:01:57.283Z,56.29
2023-02-19T23:04:23.589Z,56.84
2023-02-19T23:06:49.847Z,56.73
2023-02-19T23:09:16.099Z,56.63
2023-02-19T23:11:42.420Z,54.67
2023-02-19T23:14:08.699Z,53.56
2023-02-19T23:16:35.005Z,52.40
2023-02-19T23:19:01.325Z,51.81
2023-02-19T23:21:27.621Z,51.58
2023-02-19T23:23:53.924Z,52.96
2023-02-19T23:26:20.246Z,54.30
2023-02-19T23:28:46.500Z,54.81
2023-02-19T23:31:12.861Z,52.97
2023-02-19T23:33:39.208Z,52.50
2023-02-19T23:36:05.476Z,51.85
2023-02-19T23:38:31.763Z,51.33
2023-02-19T23:40:58.061Z,51.92
2023-02-19T23:43:24.308Z,52.84
2023-02-19T23:45:50.604Z,55.12
2023-02-19T23:48:16.952Z,56.27
2023-02-19T23:50:43.209Z,55.90
2023-02-19T23:53:09.465Z,55.26
2023-02-19T23:55:35.713Z,55.36
2023-02-19T23:58:01.986Z,58.81
